Pagina principale
METAR-TAF:

METAR-TAF

Aeroporti :

Cagliari, Italia

Aeroporto di Cagliari-Elmas

latitudine: 39-15N, longitudine: 009-04E, altezza: 4 m

Osservazione

Il bollettino è stato emesso 19 minuti fa, alle 11:50 UTC
Vento 11 kt da ovest/nord-ovest, variando fra ovest/sud-ovest e nord-ovest
Temperature 17°C
Umidità 52%
Pressione 1016 hPa
Visibilità 10 km o più
Poco nuvoloso ad un'altezza di 3000 ft

METAR: LIEE 191150Z 29011KT 250V310 9999 FEW030 17/07 Q1016

Ora: 13:09 (12:09 UTC)

Previsione

Il bollettino è stato emesso 1 ora e 9 minuti fa, alle 11:00 UTC
Previsione valida dal 19 alle 12 UTC al 20 alle 12 UTC
Vento 12 kt da nord-ovest
Visibilità 10 km o più
Poco nuvoloso ad un'altezza di 5000 ft

TAF: LIEE 191100Z 1912/2012 32012KT 9999 FEW050

Osservazioni e previsioni meteorologiche di più di 4000 aeroporti (messaggi METAR e TAF).

Le stazioni disponibili sono rappresentate dai dischi gialli e rossi sulla carta.

Puntare il mouse per vedere il nome della stazione.

Clicca sopra per visualizzare le osservazioni e previsioni meteorologiche.

Per cambiare la mappa : fare clic sui pulsanti verdi con una croce nera per ingrandire, il pulsante verde con un trattino per diminuire, o sulla freccia verde per le mappe adiacenti.


METAR-TAF: